Time;durP1;ratioP1;P1;durP2;ratioP2;P2;SDS_P1;SDS_P2;PMS_P1;PMS_P2;Temp;Humidity;BMP_temperature;BMP_pressure;BME280_temperature;BME280_humidity;BME280_pressure;Samples;Min_cycle;Max_cycle;Signal;HPM_P1;HPM_P2
2021/08/08 00:02:15;;;;;;;0.70;0.60;;;13.40;99.90;;;14.47;77.53;93839.47;5007209;28;20706;-74
2021/08/08 00:04:41;;;;;;;2.30;0.70;;;13.40;99.90;;;14.40;77.72;93847.03;4981654;28;20266;-75
2021/08/08 00:07:07;;;;;;;1.43;0.70;;;13.30;99.90;;;14.41;77.59;93849.41;5008394;28;20196;-74
2021/08/08 00:09:32;;;;;;;0.93;0.50;;;13.70;99.90;;;14.42;77.62;93847.53;5008326;28;20209;-75
2021/08/08 00:11:59;;;;;;;1.00;0.70;;;13.30;99.90;;;14.43;77.75;93851.81;4976849;28;20183;-73
2021/08/08 00:14:26;;;;;;;1.57;0.40;;;13.30;99.90;;;14.44;77.82;93850.72;5002425;28;20191;-75
2021/08/08 00:16:52;;;;;;;0.90;0.60;;;13.30;99.90;;;14.50;77.68;93868.22;5008323;28;20221;-73
2021/08/08 00:19:20;;;;;;;0.70;0.70;;;13.40;99.90;;;14.63;77.77;93875.50;5001723;28;20211;-73
2021/08/08 00:21:47;;;;;;;2.80;0.60;;;13.50;99.90;;;14.67;77.95;93865.84;4992750;28;20657;-74
2021/08/08 00:24:13;;;;;;;1.67;0.60;;;13.50;99.90;;;14.67;77.76;93869.28;4992027;28;20250;-74
2021/08/08 00:26:43;;;;;;;0.60;0.43;;;13.60;99.90;;;14.72;77.95;93866.53;5008580;28;20283;-74
2021/08/08 00:29:09;;;;;;;1.37;0.70;;;13.60;99.90;;;14.75;78.09;93867.84;5008162;28;20251;-74
2021/08/08 00:31:35;;;;;;;3.30;0.70;;;13.60;99.90;;;14.77;78.06;93871.03;5006121;28;20225;-75
2021/08/08 00:34:01;;;;;;;1.57;0.70;;;13.60;99.90;;;14.79;77.97;93880.31;5006851;28;20215;-74
2021/08/08 00:36:28;;;;;;;0.70;0.60;;;13.70;99.90;;;14.93;77.79;93876.91;4991328;28;20220;-75
2021/08/08 00:39:00;;;;;;;0.60;0.60;;;13.80;99.90;;;15.02;77.96;93883.94;5008237;28;20231;-74
2021/08/08 00:41:26;;;;;;;0.90;0.50;;;13.90;99.90;;;15.07;78.03;93873.19;5013569;28;20265;-74
2021/08/08 00:43:52;;;;;;;0.60;0.60;;;13.90;99.90;;;15.12;77.94;93870.44;5002247;28;20196;-74
2021/08/08 00:46:17;;;;;;;0.83;0.50;;;14.00;99.90;;;15.15;77.97;93872.50;5000626;28;20209;-73
2021/08/08 00:48:46;;;;;;;0.80;0.60;;;14.00;99.90;;;15.17;77.97;93873.03;5012863;28;20200;-74
2021/08/08 00:51:11;;;;;;;0.77;0.60;;;14.10;99.90;;;15.22;77.88;93872.94;4996040;28;20198;-74
2021/08/08 00:53:42;;;;;;;1.53;0.60;;;14.10;99.90;;;15.27;78.16;93869.38;4991088;28;20649;-73
2021/08/08 00:56:08;;;;;;;1.63;0.60;;;14.20;99.90;;;15.26;78.12;93878.47;4987952;28;20225;-73
2021/08/08 00:58:34;;;;;;;0.77;0.70;;;14.80;99.90;;;15.23;77.96;93871.06;5007363;28;20201;-73
2021/08/08 01:01:03;;;;;;;0.47;0.47;;;14.20;99.90;;;15.27;78.08;93878.19;5010103;28;20241;-74
2021/08/08 01:03:29;;;;;;;1.23;0.50;;;14.20;99.90;;;15.29;78.14;93889.38;5007627;28;20212;-73
2021/08/08 01:06:11;;;;;;;2.20;0.80;;;14.20;99.90;;;15.33;78.03;93881.56;4998040;28;20211;-73
2021/08/08 01:08:45;;;;;;;1.20;0.67;;;14.20;99.90;;;15.21;78.03;93874.00;5007148;28;20207;-75
2021/08/08 01:11:16;;;;;;;0.93;0.50;;;14.10;99.90;;;15.19;78.08;93881.53;5007402;28;20269;-74
2021/08/08 01:13:44;;;;;;;1.57;0.60;;;14.10;99.90;;;15.18;78.02;93889.81;5005781;28;20540;-74
2021/08/08 01:16:14;;;;;;;2.87;0.77;;;14.10;99.90;;;15.11;78.17;93884.09;4990003;28;20253;-74
2021/08/08 01:18:42;;;;;;;1.00;0.50;;;14.00;99.90;;;15.10;78.05;93888.63;5007762;28;20189;-73
2021/08/08 01:21:08;;;;;;;0.93;0.63;;;14.00;99.90;;;15.04;78.01;93886.34;5006781;28;20195;-74
2021/08/08 01:23:35;;;;;;;0.57;0.57;;;13.60;99.90;;;14.99;78.23;93878.41;5008530;28;20192;-75
2021/08/08 01:26:03;;;;;;;0.77;0.70;;;13.30;99.90;;;14.92;78.33;93888.66;4990396;28;20192;-75
2021/08/08 01:28:29;;;;;;;1.23;0.60;;;14.40;99.90;;;14.87;78.39;93890.31;4989155;28;20218;-75
2021/08/08 01:30:55;;;;;;;0.80;0.70;;;14.40;99.90;;;14.86;78.34;93893.28;5006443;28;20220;-75
2021/08/08 01:33:24;;;;;;;1.57;0.50;;;13.80;99.90;;;14.81;78.20;93890.69;5007665;28;20685;-74
2021/08/08 01:35:51;;;;;;;0.87;0.60;;;14.00;99.90;;;14.85;78.15;93897.81;5013073;28;20664;-75
2021/08/08 01:38:20;;;;;;;1.67;0.70;;;13.70;99.90;;;14.77;78.26;93887.81;4990680;28;20658;-75
2021/08/08 01:41:01;;;;;;;0.70;0.70;;;13.70;99.90;;;14.79;78.25;93903.53;4984319;28;20187;-74
2021/08/08 01:43:32;;;;;;;0.60;0.60;;;13.70;99.90;;;14.80;78.44;93895.25;5005386;28;20203;-74
2021/08/08 01:46:05;;;;;;;1.37;0.50;;;13.60;99.90;;;14.80;78.05;93894.47;4996694;28;20209;-75
2021/08/08 01:48:38;;;;;;;1.37;0.80;;;13.70;99.90;;;14.78;78.28;93897.41;4990788;28;20200;-75
2021/08/08 01:51:04;;;;;;;1.37;0.70;;;13.70;99.90;;;14.81;78.30;93885.34;4994521;28;20698;-75
2021/08/08 01:53:30;;;;;;;2.83;1.00;;;13.70;99.90;;;14.85;78.25;93892.50;4964514;28;20254;-75
2021/08/08 01:55:57;;;;;;;0.83;0.70;;;13.70;99.90;;;14.76;78.08;93886.22;4970223;28;20252;-75
2021/08/08 01:58:27;;;;;;;1.07;0.80;;;13.70;99.90;;;14.69;78.40;93883.13;4948866;28;20260;-75
2021/08/08 02:00:55;;;;;;;1.23;0.90;;;13.60;99.90;;;14.61;78.11;93885.66;4972556;28;20292;-75
2021/08/08 02:03:21;;;;;;;1.73;0.90;;;13.60;99.90;;;14.51;78.13;93878.59;4967875;28;20246;-75
2021/08/08 02:05:53;;;;;;;1.10;1.00;;;13.50;99.90;;;14.51;78.32;93885.81;4952264;28;20201;-75
2021/08/08 02:08:18;;;;;;;2.23;1.00;;;13.50;99.90;;;14.51;78.44;93878.59;4964312;28;20778;-75
2021/08/08 02:10:44;;;;;;;1.60;1.20;;;13.50;99.90;;;14.51;78.43;93886.59;4953414;28;20210;-75
2021/08/08 02:13:12;;;;;;;2.60;1.10;;;13.90;99.90;;;14.49;78.39;93877.31;4971353;28;20241;-75
2021/08/08 02:15:40;;;;;;;1.20;1.10;;;13.50;99.90;;;14.50;78.39;93890.38;4966871;28;20664;-75
2021/08/08 02:18:06;;;;;;;3.13;1.03;;;13.50;99.90;;;14.55;78.66;93892.16;4964555;28;20210;-75
2021/08/08 02:20:32;;;;;;;1.67;1.40;;;13.50;99.90;;;14.56;78.63;93883.06;4974062;28;20265;-75
2021/08/08 02:22:58;;;;;;;3.57;1.10;;;13.50;99.90;;;14.54;78.68;93887.91;4974992;28;20193;-75
2021/08/08 02:25:27;;;;;;;1.23;1.10;;;13.50;99.90;;;14.55;78.68;93900.16;4987163;28;20206;-76
2021/08/08 02:27:53;;;;;;;2.37;1.10;;;13.50;99.90;;;14.55;78.84;93898.28;5009931;28;20205;-75
2021/08/08 02:30:21;;;;;;;1.67;0.83;;;13.50;99.90;;;14.56;78.75;93893.75;5007396;28;20203;-75
2021/08/08 02:32:50;;;;;;;2.13;0.97;;;13.50;99.90;;;14.61;78.81;93896.31;5013315;28;20199;-75
2021/08/08 02:35:15;;;;;;;1.20;1.10;;;13.60;99.90;;;14.60;78.62;93906.22;5028613;28;20228;-75
2021/08/08 02:37:41;;;;;;;1.30;0.97;;;13.60;99.90;;;14.65;78.65;93897.34;4995432;28;20201;-75
2021/08/08 02:40:10;;;;;;;1.03;0.73;;;13.70;99.90;;;14.69;78.61;93903.69;5007967;28;20545;-75
2021/08/08 02:42:39;;;;;;;1.70;0.93;;;13.60;99.90;;;14.62;78.48;93896.03;5009680;28;20755;-75
2021/08/08 02:45:10;;;;;;;3.37;0.90;;;13.60;99.90;;;14.56;78.91;93894.53;5006189;28;20287;-75
2021/08/08 02:47:38;;;;;;;1.67;1.20;;;13.60;99.90;;;14.43;78.79;93889.13;5010236;28;20199;-75
2021/08/08 02:50:11;;;;;;;1.13;1.03;;;13.50;99.90;;;14.36;78.69;93897.50;5006748;28;20228;-75
2021/08/08 02:52:41;;;;;;;2.33;1.00;;;13.40;99.90;;;14.31;78.71;93897.50;4990576;28;20219;-75
2021/08/08 02:55:10;;;;;;;2.20;0.90;;;13.40;99.90;;;14.26;78.92;93908.25;5025021;28;20692;-75
2021/08/08 02:57:35;;;;;;;1.10;1.00;;;13.30;99.90;;;14.19;78.75;93900.63;5012334;28;20197;-75
2021/08/08 03:00:02;;;;;;;1.47;1.00;;;13.30;99.90;;;14.08;78.71;93907.16;5007525;28;20728;-75
2021/08/08 03:02:28;;;;;;;4.33;1.40;;;13.20;99.90;;;14.03;78.80;93901.88;4996651;28;20250;-75
2021/08/08 03:04:55;;;;;;;1.27;0.97;;;13.70;99.90;;;13.94;78.81;93902.78;5008848;28;20231;-75
2021/08/08 03:07:21;;;;;;;1.20;1.10;;;13.10;99.90;;;13.85;79.02;93899.97;4993442;28;20193;-75
2021/08/08 03:09:47;;;;;;;1.40;1.30;;;13.00;99.90;;;13.76;78.73;93902.47;5004772;28;20225;-75
2021/08/08 03:12:13;;;;;;;2.63;1.50;;;13.00;99.90;;;13.72;78.95;93901.44;5006366;28;20619;-75
2021/08/08 03:14:39;;;;;;;3.30;1.50;;;12.80;99.90;;;13.60;78.89;93905.56;5008115;28;20631;-75
2021/08/08 03:17:07;;;;;;;4.20;1.60;;;12.60;99.90;;;13.53;78.74;93910.44;4993332;28;20659;-75
2021/08/08 03:19:32;;;;;;;3.77;1.63;;;12.60;99.90;;;13.50;79.07;93921.66;5009566;28;20207;-75
2021/08/08 03:21:58;;;;;;;4.87;2.00;;;12.60;99.90;;;13.49;78.70;93926.19;4994317;28;20208;-75
2021/08/08 03:24:24;;;;;;;2.83;2.03;;;12.60;99.90;;;13.56;78.91;93928.53;4992625;28;20585;-75
2021/08/08 03:26:50;;;;;;;6.67;2.10;;;12.60;99.90;;;13.58;79.27;93931.69;4985252;28;20200;-75
2021/08/08 03:29:16;;;;;;;2.93;1.97;;;12.60;99.90;;;13.64;79.13;93926.03;5004821;28;20255;-75
2021/08/08 03:31:42;;;;;;;3.60;2.07;;;12.70;99.90;;;13.56;79.06;93916.00;5007311;28;20227;-75
2021/08/08 03:34:08;;;;;;;2.07;1.67;;;12.60;99.90;;;13.62;79.33;93928.19;5010643;28;20550;-75
2021/08/08 03:36:34;;;;;;;2.50;1.70;;;12.70;99.90;;;13.64;79.14;93915.38;5005131;28;20227;-75
2021/08/08 03:39:01;;;;;;;4.73;1.90;;;12.70;99.90;;;13.66;79.10;93929.22;4985725;28;20201;-75
2021/08/08 03:41:27;;;;;;;2.93;1.70;;;12.80;99.90;;;13.79;79.29;93933.06;5012796;28;20195;-75
2021/08/08 03:43:56;;;;;;;2.20;1.40;;;12.90;99.90;;;13.81;79.48;93945.03;5008300;28;20209;-75
2021/08/08 03:46:27;;;;;;;1.77;1.53;;;12.90;99.90;;;13.73;79.39;93945.63;5006723;28;20305;-77
2021/08/08 03:48:53;;;;;;;1.60;1.40;;;12.80;99.90;;;13.74;79.46;93941.91;4997589;28;20195;-75
2021/08/08 03:51:19;;;;;;;2.50;1.33;;;12.90;99.90;;;13.80;79.34;93934.63;4985720;28;20202;-76
2021/08/08 03:53:45;;;;;;;2.33;1.50;;;13.00;99.90;;;13.82;79.59;93946.63;5025006;28;20286;-75
2021/08/08 03:56:11;;;;;;;1.90;1.50;;;13.00;99.90;;;13.87;79.60;93948.41;4982894;28;20353;-75
2021/08/08 03:58:37;;;;;;;2.13;1.40;;;13.00;99.90;;;13.88;79.60;93944.69;5006491;28;20249;-75
2021/08/08 04:01:03;;;;;;;2.40;1.40;;;13.00;99.90;;;13.91;79.62;93954.78;4973985;28;20242;-75
2021/08/08 04:03:34;;;;;;;1.50;1.30;;;13.00;99.90;;;13.99;79.44;93956.03;5006752;28;20658;-75
2021/08/08 04:06:00;;;;;;;2.60;1.50;;;13.00;99.90;;;13.99;79.55;93948.03;5006156;28;20204;-75
2021/08/08 04:08:26;;;;;;;1.60;1.50;;;13.00;99.90;;;14.02;79.68;93956.25;5012340;28;20198;-75
2021/08/08 04:10:52;;;;;;;3.13;1.60;;;13.10;99.90;;;14.04;79.68;93954.09;5005586;28;20231;-75
2021/08/08 04:13:20;;;;;;;1.93;1.43;;;13.10;99.90;;;14.07;79.88;93950.84;5006668;28;20200;-76
2021/08/08 04:15:48;;;;;;;3.60;1.57;;;13.10;99.90;;;14.02;79.65;93956.25;4966254;28;20801;-76
2021/08/08 04:18:17;;;;;;;2.27;1.87;;;13.10;99.90;;;14.08;79.65;93962.31;5008347;28;20197;-75
2021/08/08 04:20:45;;;;;;;1.87;1.70;;;13.10;99.90;;;14.07;79.49;93963.41;5005914;28;20219;-75
2021/08/08 04:23:16;;;;;;;3.10;1.90;;;14.00;99.90;;;13.97;79.46;93971.53;5007505;28;20202;-76
2021/08/08 04:25:42;;;;;;;3.23;2.03;;;13.00;99.90;;;13.99;79.69;93974.69;5002679;28;20272;-74
2021/08/08 04:28:08;;;;;;;4.17;2.07;;;13.00;99.90;;;14.00;79.86;93960.28;4998395;28;20540;-75
2021/08/08 04:30:38;;;;;;;2.60;2.27;;;13.00;99.90;;;14.05;79.82;93973.53;4993271;28;20230;-75
2021/08/08 04:33:04;;;;;;;3.37;2.43;;;13.00;99.90;;;14.11;79.79;93973.19;4995107;28;20512;-75
2021/08/08 04:35:32;;;;;;;2.30;2.10;;;13.10;99.90;;;14.20;79.89;93971.50;5008281;28;20264;-75
2021/08/08 04:38:02;;;;;;;2.87;2.13;;;13.20;99.90;;;14.23;79.91;93970.94;4990344;28;20244;-75
2021/08/08 04:40:28;;;;;;;2.30;2.03;;;14.10;99.90;;;14.21;79.74;93967.75;5010405;28;20227;-75
2021/08/08 04:42:54;;;;;;;5.57;2.30;;;13.10;99.90;;;14.25;80.07;93959.97;5013303;28;20804;-75
2021/08/08 04:45:20;;;;;;;3.77;2.60;;;14.10;99.90;;;14.27;80.01;93966.59;4974210;28;20208;-76
2021/08/08 04:47:48;;;;;;;2.60;2.00;;;14.10;99.90;;;14.28;79.91;93967.41;5004089;28;20232;-75
2021/08/08 04:50:17;;;;;;;2.10;1.90;;;13.50;99.90;;;14.30;80.17;93965.25;4984350;28;20201;-75
2021/08/08 04:52:45;;;;;;;3.53;2.27;;;13.30;99.90;;;14.27;80.15;93960.47;4989819;28;20327;-75
2021/08/08 04:55:13;;;;;;;2.20;2.00;;;13.30;99.90;;;14.36;80.27;93978.28;5007361;28;20789;-75
2021/08/08 04:57:39;;;;;;;2.63;2.00;;;13.40;99.90;;;14.48;80.27;93971.72;5007824;28;20193;-76
2021/08/08 05:00:08;;;;;;;1.90;1.70;;;13.50;99.90;;;14.59;80.02;93983.84;5002900;28;20204;-76
2021/08/08 05:02:35;;;;;;;3.90;1.70;;;13.50;99.90;;;14.72;80.24;93983.94;5009201;28;20595;-76
2021/08/08 05:05:05;;;;;;;2.13;1.50;;;13.70;99.90;;;14.84;80.05;93981.63;5005562;28;20204;-75
2021/08/08 05:07:35;;;;;;;2.90;1.73;;;13.80;99.90;;;14.86;80.45;93973.34;5005555;28;20201;-75
2021/08/08 05:10:01;;;;;;;3.40;1.47;;;13.90;99.90;;;14.98;80.15;93976.34;5007051;28;20197;-75
2021/08/08 05:12:29;;;;;;;2.10;1.50;;;14.00;99.90;;;15.16;80.13;93993.44;4991013;28;20199;-75
2021/08/08 05:14:55;;;;;;;1.97;1.60;;;14.10;99.90;;;15.22;80.32;93989.63;5011866;28;20676;-75
2021/08/08 05:17:21;;;;;;;2.70;1.27;;;14.20;99.90;;;15.40;80.27;93994.16;4959632;28;20210;-76
2021/08/08 05:19:48;;;;;;;1.93;1.13;;;14.40;99.90;;;15.49;80.19;93986.28;5008335;28;20292;-75
2021/08/08 05:22:17;;;;;;;2.70;1.10;;;14.50;99.90;;;15.56;80.24;93995.50;4976584;28;20849;-75
2021/08/08 05:24:43;;;;;;;1.40;1.03;;;14.60;99.90;;;15.54;80.42;93975.53;5005881;28;20201;-75
2021/08/08 05:27:11;;;;;;;2.77;1.30;;;14.60;99.90;;;15.64;80.22;93999.41;4966473;28;20228;-76
2021/08/08 05:29:37;;;;;;;3.10;1.40;;;14.70;99.90;;;15.73;80.12;93992.28;5008549;28;20201;-75
2021/08/08 05:32:04;;;;;;;1.53;1.10;;;14.80;99.90;;;15.81;80.26;93981.69;4988461;28;20227;-76
2021/08/08 05:34:30;;;;;;;1.73;1.10;;;14.80;99.90;;;15.84;80.21;93977.66;5005429;28;20217;-76
2021/08/08 05:36:58;;;;;;;1.73;1.10;;;14.90;99.90;;;15.82;80.44;93985.97;4991261;28;20227;-75
2021/08/08 05:39:24;;;;;;;2.27;1.27;;;14.90;99.90;;;15.89;80.29;93985.59;4997148;28;20315;-75
2021/08/08 05:41:50;;;;;;;1.80;1.20;;;15.00;99.90;;;15.90;80.26;93982.63;4989322;28;20215;-76
2021/08/08 05:44:16;;;;;;;2.80;1.07;;;15.00;99.90;;;16.03;80.29;93991.75;5005292;28;20220;-76
2021/08/08 05:46:43;;;;;;;1.47;0.90;;;15.10;99.90;;;16.19;80.19;93995.72;4998948;28;20243;-75
2021/08/08 05:49:09;;;;;;;1.37;1.00;;;15.20;99.90;;;16.34;80.26;93998.09;5005425;28;20200;-76
2021/08/08 05:51:36;;;;;;;3.20;0.90;;;15.30;99.90;;;16.57;80.28;94000.91;4999218;28;20203;-76
2021/08/08 05:54:02;;;;;;;1.80;1.10;;;15.60;99.90;;;16.69;80.43;93993.94;4997006;28;20248;-75
2021/08/08 05:56:29;;;;;;;1.00;0.93;;;15.70;99.90;;;16.80;80.09;93994.50;5001919;28;20213;-75
2021/08/08 05:58:57;;;;;;;0.90;0.90;;;15.80;99.90;;;16.84;80.07;93995.50;5007047;28;20200;-75
2021/08/08 06:01:23;;;;;;;0.97;0.70;;;16.00;99.90;;;16.97;80.30;93985.84;4989242;28;20727;-76
2021/08/08 06:03:49;;;;;;;4.10;1.10;;;16.10;99.90;;;16.97;80.10;93997.38;4986745;28;20205;-75
2021/08/08 06:06:17;;;;;;;2.87;0.93;;;16.10;99.90;;;17.17;79.86;94009.50;5007857;28;20193;-75
2021/08/08 06:08:43;;;;;;;3.23;0.90;;;16.20;99.90;;;17.15;79.84;93985.72;4970279;28;21071;-76
2021/08/08 06:11:09;;;;;;;1.30;0.97;;;16.30;99.90;;;17.22;79.97;93999.50;4986477;28;20225;-75
2021/08/08 06:13:35;;;;;;;2.87;0.70;;;16.40;99.90;;;17.39;79.76;94001.50;5008462;28;20575;-76
2021/08/08 06:16:01;;;;;;;2.27;0.97;;;16.40;99.90;;;17.55;79.69;94008.09;4988532;28;20572;-77
2021/08/08 06:18:28;;;;;;;4.70;0.90;;;16.80;99.90;;;17.61;79.90;94016.81;4992074;28;20197;-76
2021/08/08 06:20:56;;;;;;;1.03;0.70;;;16.80;99.90;;;17.69;79.50;93998.13;5007978;28;20226;-76
2021/08/08 06:23:22;;;;;;;1.60;0.70;;;17.10;99.90;;;17.76;79.75;94003.81;5008474;28;20968;-75
2021/08/08 06:25:51;;;;;;;2.60;1.00;;;16.50;99.90;;;17.81;79.63;93998.34;4988047;28;20279;-75
2021/08/08 06:28:19;;;;;;;2.50;0.80;;;17.00;99.90;;;17.86;79.53;94003.56;4995904;28;20203;-75
2021/08/08 06:30:45;;;;;;;1.33;0.90;;;17.10;99.90;;;17.90;78.93;94007.22;4989627;28;20226;-76
2021/08/08 06:33:16;;;;;;;2.00;0.77;;;17.20;99.90;;;17.86;79.40;94008.16;4997739;28;20207;-75
2021/08/08 06:35:46;;;;;;;1.47;0.70;;;17.20;99.90;;;17.86;79.34;94008.16;5010495;28;20230;-76
2021/08/08 06:38:12;;;;;;;1.70;0.77;;;17.20;99.90;;;17.80;79.19;93998.63;4999719;28;20210;-76
2021/08/08 06:40:40;;;;;;;1.33;0.70;;;17.20;99.90;;;17.83;79.06;93995.34;4991296;28;20264;-76
2021/08/08 06:43:06;;;;;;;3.70;0.77;;;17.20;99.90;;;17.91;79.27;94008.03;4977149;28;20227;-76
2021/08/08 06:45:33;;;;;;;4.60;0.90;;;17.20;99.90;;;17.92;79.23;94012.28;5006408;28;20203;-76
2021/08/08 06:48:00;;;;;;;1.17;0.70;;;17.20;99.90;;;17.86;79.19;94005.47;4986274;28;20203;-75
2021/08/08 06:50:30;;;;;;;2.10;0.60;;;17.10;99.90;;;17.84;78.97;94021.06;5005297;28;20686;-76
2021/08/08 06:52:57;;;;;;;2.40;0.73;;;17.10;99.90;;;18.01;78.83;94015.00;4988852;28;20259;-75
2021/08/08 06:55:24;;;;;;;2.57;0.63;;;17.20;99.90;;;18.16;78.74;94018.09;5006374;28;20224;-75
2021/08/08 06:57:50;;;;;;;2.40;0.73;;;17.30;99.90;;;18.17;78.96;94008.94;5025994;28;20230;-76
2021/08/08 07:00:16;;;;;;;1.17;0.70;;;17.50;99.90;;;18.34;78.55;94003.66;5009527;28;20198;-75
2021/08/08 07:02:43;;;;;;;1.53;0.70;;;17.60;99.90;;;18.54;78.73;94009.59;5007299;28;20202;-75
2021/08/08 07:05:09;;;;;;;2.60;0.70;;;17.80;99.90;;;18.84;78.38;94014.09;4990822;28;20562;-76
2021/08/08 07:07:35;;;;;;;2.00;0.70;;;18.00;99.90;;;18.86;78.42;93995.78;5001382;28;20241;-75
2021/08/08 07:10:02;;;;;;;1.77;0.80;;;18.20;99.90;;;19.05;78.43;93998.19;5003421;28;20204;-75
2021/08/08 07:12:28;;;;;;;1.47;0.60;;;18.30;99.90;;;18.99;78.25;94010.97;4995033;28;20308;-73
2021/08/08 07:14:53;;;;;;;1.83;0.60;;;18.40;99.90;;;19.14;78.34;94015.88;4986377;28;20227;-72
2021/08/08 07:17:19;;;;;;;0.97;0.83;;;18.50;99.90;;;18.90;78.12;93994.84;4999601;28;20201;-72
2021/08/08 07:19:45;;;;;;;2.10;0.90;;;18.30;99.90;;;19.11;77.89;94005.78;5007054;28;20723;-72
2021/08/08 07:22:12;;;;;;;1.23;0.80;;;18.40;99.90;;;19.02;77.90;93994.22;5002062;28;20210;-72
2021/08/08 07:24:38;;;;;;;4.37;1.00;;;18.50;99.90;;;19.06;77.80;94018.56;5001156;28;20204;-72
2021/08/08 07:27:06;;;;;;;2.30;0.67;;;18.50;99.90;;;19.12;77.77;94012.72;5000169;28;20222;-72
2021/08/08 07:29:35;;;;;;;2.10;0.63;;;18.60;99.90;;;19.34;77.64;94025.25;5017551;28;20222;-72
2021/08/08 07:32:01;;;;;;;4.27;0.90;;;18.80;99.90;;;19.62;77.61;94026.53;5002431;28;20242;-72
2021/08/08 07:34:29;;;;;;;1.50;0.70;;;19.10;99.90;;;19.76;77.60;94035.22;5002113;28;20311;-72
2021/08/08 07:36:56;;;;;;;3.20;0.70;;;19.10;99.90;;;19.63;77.43;94025.44;4985604;28;20231;-72
2021/08/08 07:39:22;;;;;;;1.53;0.70;;;19.10;99.90;;;19.51;77.34;94024.50;5002155;28;20283;-72
2021/08/08 07:41:48;;;;;;;3.07;0.67;;;19.10;99.90;;;19.54;77.19;94026.56;4986970;28;20656;-72
2021/08/08 07:44:14;;;;;;;2.87;0.70;;;19.00;99.90;;;19.31;76.96;94045.47;5004092;28;20190;-72
2021/08/08 07:46:40;;;;;;;3.00;0.70;;;18.80;99.90;;;19.45;76.88;94050.72;5000390;28;20240;-72
2021/08/08 07:49:06;;;;;;;2.30;0.80;;;18.80;99.90;;;19.29;76.78;94042.31;5007739;28;20223;-72
2021/08/08 07:51:32;;;;;;;1.07;0.60;;;18.70;99.90;;;18.97;76.78;94048.09;5001411;28;20871;-72
2021/08/08 07:53:58;;;;;;;1.20;0.70;;;18.40;99.90;;;18.91;76.72;94057.41;4997393;28;20203;-72
2021/08/08 07:56:24;;;;;;;1.30;0.67;;;19.00;99.90;;;19.07;76.48;94045.13;5003608;28;20271;-72
2021/08/08 07:58:53;;;;;;;2.00;0.70;;;18.70;99.90;;;19.22;76.52;94063.50;5001378;28;20252;-72
2021/08/08 08:01:19;;;;;;;1.93;0.53;;;19.20;99.90;;;19.43;76.46;94067.19;4986042;28;20206;-72
2021/08/08 08:03:46;;;;;;;1.67;0.77;;;18.70;99.90;;;19.67;76.44;94069.41;4985183;28;20195;-72
2021/08/08 08:06:11;;;;;;;1.33;0.80;;;18.90;99.90;;;19.87;76.19;94063.41;4988758;28;20213;-73
2021/08/08 08:08:37;;;;;;;2.03;0.70;;;19.20;99.90;;;19.81;75.68;94047.75;5000658;28;20208;-74
2021/08/08 08:11:03;;;;;;;2.30;0.70;;;19.30;99.90;;;19.88;76.08;94048.03;5002221;28;20206;-74
2021/08/08 08:13:29;;;;;;;2.97;0.70;;;19.30;99.90;;;19.55;76.16;94046.94;4985961;28;20252;-73
2021/08/08 08:15:55;;;;;;;3.63;0.80;;;19.10;99.90;;;19.31;75.79;94044.69;4983878;28;20222;-74
2021/08/08 08:18:21;;;;;;;2.07;0.87;;;18.80;99.90;;;19.15;75.85;94059.69;4985179;28;20757;-73
2021/08/08 08:20:49;;;;;;;1.77;0.60;;;18.70;99.90;;;19.17;75.74;94062.84;5000338;28;20321;-73
2021/08/08 08:23:15;;;;;;;1.73;0.70;;;18.60;99.90;;;19.20;75.65;94063.03;5003160;28;20188;-72
2021/08/08 08:25:43;;;;;;;1.73;0.83;;;18.70;99.90;;;19.21;75.54;94056.53;4987274;28;20529;-72
2021/08/08 08:28:12;;;;;;;4.20;0.90;;;18.70;99.90;;;19.12;75.54;94079.13;5000187;28;20218;-72
2021/08/08 08:30:39;;;;;;;2.70;0.87;;;18.50;99.90;;;19.00;75.62;94069.00;4999943;28;20225;-72
2021/08/08 08:33:07;;;;;;;1.60;0.70;;;18.50;99.90;;;18.95;75.48;94075.28;5019591;28;20679;-72
2021/08/08 08:35:36;;;;;;;2.90;0.80;;;18.40;99.90;;;18.41;75.64;94062.25;5001298;28;20221;-72
2021/08/08 08:38:02;;;;;;;2.87;0.90;;;18.00;99.90;;;18.00;75.61;94080.50;5005865;28;20271;-72
2021/08/08 08:40:30;;;;;;;1.93;0.80;;;17.50;99.90;;;17.59;75.45;94086.81;5000762;28;20316;-72
2021/08/08 08:42:59;;;;;;;3.93;0.90;;;17.10;99.90;;;17.32;75.06;94084.19;5003815;28;20284;-72
2021/08/08 08:45:25;;;;;;;4.50;1.20;;;16.70;99.90;;;16.94;75.48;94080.97;5002295;28;20203;-72
2021/08/08 08:47:51;;;;;;;3.17;1.10;;;16.30;99.90;;;16.79;75.20;94078.59;4979850;28;20466;-72
2021/08/08 08:50:20;;;;;;;2.53;0.97;;;16.10;99.90;;;16.91;75.53;94097.63;5004226;28;20855;-72
2021/08/08 08:52:49;;;;;;;4.33;1.00;;;16.10;99.90;;;17.18;75.57;94104.84;5003148;28;20189;-72
2021/08/08 08:55:15;;;;;;;5.27;1.10;;;16.30;99.90;;;17.47;75.49;94101.81;5006291;28;20264;-72
2021/08/08 08:57:42;;;;;;;1.37;0.80;;;16.50;99.90;;;17.62;75.58;94096.94;4989613;28;20277;-72
2021/08/08 09:00:09;;;;;;;2.17;0.70;;;16.70;99.90;;;17.64;75.30;94105.47;5002941;28;20228;-72
2021/08/08 09:02:35;;;;;;;2.67;0.90;;;16.80;99.90;;;17.82;75.32;94082.25;5004410;28;20229;-72
2021/08/08 09:05:02;;;;;;;2.03;1.10;;;16.90;99.90;;;17.80;75.27;94111.25;4993260;28;20193;-72
2021/08/08 09:07:30;;;;;;;2.83;1.03;;;17.00;99.90;;;17.71;75.33;94086.28;4985229;28;20838;-72
2021/08/08 09:09:57;;;;;;;2.37;0.90;;;17.00;99.90;;;17.84;75.56;94115.72;5007495;28;20199;-72
2021/08/08 09:12:25;;;;;;;2.07;0.73;;;17.10;99.90;;;17.87;75.30;94100.91;5002122;28;20668;-72
2021/08/08 09:15:03;;;;;;;4.07;0.93;;;17.10;99.90;;;17.65;75.43;94115.09;4988112;28;20289;-72
2021/08/08 09:17:34;;;;;;;1.63;0.93;;;16.90;99.90;;;17.17;75.14;94090.66;5001619;28;20267;-73
2021/08/08 09:20:09;;;;;;;1.63;1.07;;;16.50;99.90;;;17.11;75.19;94113.28;4985562;28;20862;-72
2021/08/08 09:22:37;;;;;;;2.67;0.90;;;16.40;99.90;;;17.06;75.29;94099.19;4970826;28;20209;-72
2021/08/08 09:25:04;;;;;;;1.90;0.80;;;16.30;99.90;;;17.09;75.21;94118.13;4987407;28;20208;-72
2021/08/08 09:27:39;;;;;;;1.70;1.10;;;16.10;99.90;;;16.92;75.22;94118.75;5001841;28;20220;-72
2021/08/08 09:30:25;;;;;;;2.30;1.03;;;16.10;99.90;;;17.22;75.02;94130.75;4986962;28;20211;-72
2021/08/08 09:33:07;;;;;;;3.47;1.57;;;16.30;99.90;;;17.21;75.32;94118.44;5001856;28;20245;-72
2021/08/08 09:35:41;;;;;;;4.77;1.30;;;16.20;99.90;;;17.13;75.41;94121.00;5000724;28;20221;-73
2021/08/08 09:38:12;;;;;;;3.13;1.53;;;16.60;99.90;;;17.36;75.24;94141.41;4983000;28;20242;-71
2021/08/08 09:40:43;;;;;;;3.57;1.10;;;16.30;99.90;;;17.46;74.97;94132.41;4989448;28;20345;-71
2021/08/08 09:43:12;;;;;;;3.40;1.30;;;16.50;99.90;;;17.40;75.30;94139.72;4987909;28;20282;-71
2021/08/08 09:45:39;;;;;;;1.20;1.07;;;16.70;99.90;;;17.65;75.34;94151.81;4993473;28;20257;-71
2021/08/08 09:48:06;;;;;;;3.67;1.20;;;16.80;99.90;;;17.96;75.00;94136.63;5000088;28;20569;-71
2021/08/08 09:50:34;;;;;;;3.23;1.00;;;17.10;99.90;;;17.99;75.18;94125.31;4991826;28;20223;-71
2021/08/08 09:53:09;;;;;;;2.73;1.23;;;17.20;99.90;;;18.36;75.00;94173.22;5003164;28;20187;-71
2021/08/08 09:55:39;;;;;;;3.27;1.20;;;17.40;99.90;;;18.87;75.14;94137.03;5006182;28;20218;-71
2021/08/08 09:58:22;;;;;;;3.53;1.13;;;17.90;99.90;;;18.98;74.82;94153.66;5004237;28;20185;-71
2021/08/08 10:00:50;;;;;;;2.20;1.10;;;18.00;99.90;;;19.08;75.12;94154.19;5001946;28;20191;-71
2021/08/08 10:03:17;;;;;;;4.13;1.33;;;18.10;99.90;;;18.80;74.81;94132.09;5007323;28;20840;-71
2021/08/08 10:05:45;;;;;;;1.07;0.90;;;18.00;99.90;;;18.82;74.95;94156.78;5000271;28;20202;-72
2021/08/08 10:08:17;;;;;;;3.20;1.30;;;17.90;99.90;;;18.66;74.35;94163.66;5005119;28;20496;-72
2021/08/08 10:10:47;;;;;;;3.67;1.23;;;17.80;99.90;;;18.87;74.58;94171.94;5001016;28;20518;-71
2021/08/08 10:14:01;;;;;;;3.10;1.03;;;17.90;99.90;;;19.07;75.04;94149.91;5020385;28;20191;-72
2021/08/08 10:16:36;;;;;;;1.43;1.00;;;18.10;99.90;;;19.08;74.47;94148.81;4977990;28;20219;-72
2021/08/08 10:19:03;;;;;;;2.00;1.00;;;18.20;99.90;;;19.29;74.66;94152.53;5004765;28;20674;-72
2021/08/08 10:21:33;;;;;;;3.07;1.13;;;18.40;99.90;;;19.12;74.53;94162.41;4988934;28;20232;-72
2021/08/08 10:24:03;;;;;;;1.30;1.20;;;18.20;99.90;;;19.23;74.34;94145.72;5004992;28;20222;-71